Time;durP1;ratioP1;P1;durP2;ratioP2;P2;SDS_P1;SDS_P2;PMS_P1;PMS_P2;Temp;Humidity;BMP_temperature;BMP_pressure;BME280_temperature;BME280_humidity;BME280_pressure;Samples;Min_cycle;Max_cycle;Signal;HPM_P1;HPM_P2
2022/05/01 00:01:25;;;;;;;0.60;0.60;;;;;;;10.26;53.03;100996.68;104038;1280;142864;-75
2022/05/01 00:03:53;;;;;;;0.60;0.60;;;;;;;10.15;53.46;100999.69;104074;1281;100034;-73
2022/05/01 00:06:21;;;;;;;0.50;0.50;;;;;;;10.20;53.25;100998.36;103980;1280;140733;-73
2022/05/01 00:08:49;;;;;;;0.50;0.50;;;;;;;10.25;53.13;101000.08;104146;1281;95262;-76
2022/05/01 00:11:17;;;;;;;0.50;0.40;;;;;;;10.26;53.16;100998.28;104083;1279;95124;-74
2022/05/01 00:13:45;;;;;;;0.50;0.50;;;;;;;10.18;53.43;100995.90;103966;1280;140437;-73
2022/05/01 00:16:13;;;;;;;0.50;0.50;;;;;;;10.13;53.43;100999.36;104115;1281;100309;-73
2022/05/01 00:18:41;;;;;;;0.50;0.40;;;;;;;10.07;53.70;100993.77;103921;1281;140755;-78
2022/05/01 00:21:09;;;;;;;0.50;0.50;;;;;;;10.01;53.83;100995.27;104103;1280;95233;-76
2022/05/01 00:23:37;;;;;;;0.60;0.60;;;;;;;9.97;53.96;100990.90;104095;1279;95169;-76
2022/05/01 00:26:07;;;;;;;0.50;0.50;;;;;;;9.95;53.86;100989.86;103992;1281;140009;-73
2022/05/01 00:28:38;;;;;;;0.50;0.50;;;;;;;9.98;53.90;100989.64;104040;1280;99954;-74
2022/05/01 00:31:07;;;;;;;0.50;0.50;;;;;;;9.98;54.28;100989.98;103953;1281;140894;-76
2022/05/01 00:36:26;;;;;;;0.50;0.50;;;;;;;9.87;54.54;100989.25;103994;1280;140257;-73
2022/05/01 00:39:01;;;;;;;0.50;0.50;;;;;;;9.87;54.75;100987.84;104082;1280;108715;-73
2022/05/01 00:41:31;;;;;;;0.50;0.50;;;;;;;9.92;55.04;100986.71;104105;1281;100184;-74
2022/05/01 00:44:11;;;;;;;0.50;0.40;;;;;;;9.93;54.89;100989.90;104042;1280;140931;-76
2022/05/01 00:46:44;;;;;;;0.50;0.50;;;;;;;9.99;54.38;100991.05;104077;1281;95686;-76
2022/05/01 00:49:18;;;;;;;0.50;0.50;;;;;;;9.98;54.51;100990.00;104069;1281;139699;-73
2022/05/01 00:51:53;;;;;;;0.50;0.50;;;;;;;9.97;54.46;100987.53;104139;1280;110313;-74
2022/05/01 00:54:31;;;;;;;0.50;0.50;;;;;;;9.94;54.61;100988.63;103939;1280;139948;-74
2022/05/01 00:57:04;;;;;;;0.50;0.50;;;;;;;9.98;54.64;100985.91;103999;1280;109807;-73
2022/05/01 00:59:34;;;;;;;0.50;0.50;;;;;;;10.03;54.70;100983.36;104046;1280;95175;-74
2022/05/01 01:02:03;;;;;;;0.50;0.50;;;;;;;9.99;54.92;100983.77;104015;1281;139529;-73
2022/05/01 01:04:31;;;;;;;0.50;0.50;;;;;;;9.88;55.14;100985.34;104237;1279;108707;-76
2022/05/01 01:06:59;;;;;;;0.50;0.50;;;;;;;9.83;55.22;100983.83;103946;1281;139921;-74
2022/05/01 01:09:27;;;;;;;0.50;0.50;;;;;;;9.84;55.25;100984.70;104050;1281;109243;-78
2022/05/01 01:14:42;;;;;;;0.50;0.50;;;;;;;9.94;55.11;100985.27;104056;1280;95743;-75
2022/05/01 01:17:11;;;;;;;0.50;0.50;;;;;;;9.98;55.11;100983.08;104129;1281;110248;-73
2022/05/01 01:19:38;;;;;;;0.50;0.50;;;;;;;9.97;54.99;100984.33;103951;1281;139641;-74
2022/05/01 01:22:08;;;;;;;0.50;0.50;;;;;;;9.91;55.24;100983.53;104063;1281;109312;-76
2022/05/01 01:24:41;;;;;;;0.50;0.50;;;;;;;9.92;55.33;100982.98;104078;1281;140457;-76
2022/05/01 01:27:10;;;;;;;0.50;0.50;;;;;;;9.93;55.42;100979.08;104089;1281;95230;-77
2022/05/01 01:32:39;;;;;;;0.50;0.50;;;;;;;9.94;55.06;100984.20;103459;1281;98875;-77
2022/05/01 01:35:09;;;;;;;0.50;0.50;;;;;;;9.91;55.09;100982.65;104435;1281;107750;-76
2022/05/01 01:37:37;;;;;;;0.50;0.50;;;;;;;9.96;54.84;100980.27;103932;1281;139882;-73
2022/05/01 01:40:05;;;;;;;0.50;0.40;;;;;;;10.02;54.79;100979.83;104015;1281;95637;-78
2022/05/01 01:42:35;;;;;;;0.50;0.50;;;;;;;10.04;54.68;100978.91;103932;1281;140088;-74
2022/05/01 01:45:05;;;;;;;0.50;0.50;;;;;;;9.96;54.79;100977.44;103987;1281;99937;-74
2022/05/01 01:47:33;;;;;;;0.50;0.50;;;;;;;9.98;54.52;100973.30;104090;1281;109291;-76
2022/05/01 01:50:00;;;;;;;0.50;0.50;;;;;;;9.94;54.85;100969.83;103951;1280;139561;-73
2022/05/01 01:52:28;;;;;;;0.50;0.50;;;;;;;9.91;54.74;100968.64;104070;1281;95153;-76
2022/05/01 01:54:56;;;;;;;0.50;0.50;;;;;;;9.94;54.55;100973.20;103944;1281;138886;-76
2022/05/01 01:57:24;;;;;;;0.50;0.50;;;;;;;9.90;54.78;100972.91;104103;1281;99832;-74
2022/05/01 01:59:52;;;;;;;0.50;0.50;;;;;;;9.77;55.21;100973.61;104025;1281;109169;-74
2022/05/01 02:02:20;;;;;;;0.50;0.50;;;;;;;9.65;55.40;100970.05;104039;1281;138619;-77
2022/05/01 02:04:48;;;;;;;0.50;0.50;;;;;;;9.62;55.56;100965.84;104218;1280;95259;-74
2022/05/01 02:07:16;;;;;;;0.50;0.50;;;;;;;9.70;55.42;100960.75;103966;1279;140032;-73
2022/05/01 02:09:44;;;;;;;0.50;0.50;;;;;;;9.66;55.69;100968.10;104098;1279;98342;-74
2022/05/01 02:12:12;;;;;;;0.50;0.50;;;;;;;9.58;55.67;100969.27;103921;1279;139520;-75
2022/05/01 02:14:41;;;;;;;0.50;0.50;;;;;;;9.48;56.04;100970.63;104017;1281;95261;-73
2022/05/01 02:17:09;;;;;;;0.60;0.60;;;;;;;9.43;56.18;100973.52;104123;1280;95142;-74
2022/05/01 02:19:37;;;;;;;0.50;0.50;;;;;;;9.40;56.26;100972.33;103947;1280;140551;-77
2022/05/01 02:22:05;;;;;;;0.50;0.50;;;;;;;9.40;56.29;100972.84;104082;1279;99922;-79
2022/05/01 02:24:33;;;;;;;0.50;0.50;;;;;;;9.40;56.17;100973.91;103990;1280;139637;-77
2022/05/01 02:27:02;;;;;;;0.60;0.60;;;;;;;9.38;56.11;100973.05;104056;1279;95521;-75
2022/05/01 02:29:29;;;;;;;0.60;0.60;;;;;;;9.19;56.62;100971.86;104056;1279;95617;-75
2022/05/01 02:31:57;;;;;;;0.50;0.50;;;;;;;9.06;57.13;100970.58;104004;1279;141605;-77
2022/05/01 02:34:25;;;;;;;0.50;0.50;;;;;;;9.17;56.79;100971.35;104086;1279;100171;-75
2022/05/01 02:36:54;;;;;;;0.50;0.50;;;;;;;9.24;56.91;100969.87;104011;1279;140097;-75
2022/05/01 02:39:23;;;;;;;0.60;0.60;;;;;;;9.20;56.75;100965.29;104100;1279;95704;-74
2022/05/01 02:41:51;;;;;;;0.60;0.60;;;;;;;9.12;56.76;100967.15;103804;1281;95427;-74
2022/05/01 02:44:19;;;;;;;0.60;0.60;;;;;;;9.15;56.93;100967.81;104021;1279;139816;-77
2022/05/01 02:46:47;;;;;;;0.50;0.50;;;;;;;9.09;56.95;100967.89;104166;1279;100070;-77
2022/05/01 02:49:15;;;;;;;0.60;0.60;;;;;;;9.04;57.00;100966.36;103951;1279;139765;-74
2022/05/01 02:51:43;;;;;;;0.70;0.70;;;;;;;9.04;56.93;100967.77;104079;1279;95240;-74
2022/05/01 02:54:10;;;;;;;0.50;0.50;;;;;;;9.02;56.84;100966.02;104063;1279;95355;-75
2022/05/01 02:56:38;;;;;;;0.60;0.60;;;;;;;8.97;57.07;100970.51;103925;1279;139658;-75
2022/05/01 02:59:09;;;;;;;0.50;0.50;;;;;;;8.98;57.33;100966.77;104128;1279;99877;-74
2022/05/01 03:01:37;;;;;;;0.60;0.60;;;;;;;8.93;57.40;100971.08;103984;1279;139600;-73
2022/05/01 03:04:05;;;;;;;0.60;0.60;;;;;;;8.90;57.22;100972.35;104015;1279;95358;-76
2022/05/01 03:06:34;;;;;;;0.70;0.70;;;;;;;8.85;57.22;100975.40;104026;1279;139612;-75
2022/05/01 03:09:03;;;;;;;0.60;0.60;;;;;;;8.90;57.27;100973.58;104057;1279;108615;-73
2022/05/01 03:11:32;;;;;;;0.60;0.60;;;;;;;8.92;57.24;100971.62;104059;1279;98284;-75
2022/05/01 03:14:00;;;;;;;0.60;0.60;;;;;;;8.85;57.36;100973.29;104001;1279;139463;-74
2022/05/01 03:16:27;;;;;;;0.60;0.60;;;;;;;8.78;57.51;100975.48;104033;1279;95670;-73
2022/05/01 03:24:28;;;;;;;0.50;0.50;;;;;;;8.83;57.58;100977.72;103979;1279;142227;-74
2022/05/01 03:26:56;;;;;;;0.60;0.60;;;;;;;8.78;57.49;100978.48;104036;1279;109854;-75
2022/05/01 03:29:24;;;;;;;0.60;0.60;;;;;;;8.65;57.71;100982.85;104078;1279;95883;-74
2022/05/01 03:31:52;;;;;;;0.60;0.60;;;;;;;8.67;57.73;100982.66;104008;1279;140154;-74
2022/05/01 03:34:22;;;;;;;0.60;0.60;;;;;;;8.72;57.96;100982.80;104070;1279;109992;-74
2022/05/01 03:36:50;;;;;;;0.60;0.60;;;;;;;8.76;58.08;100979.04;104025;1279;140098;-76
2022/05/01 03:39:18;;;;;;;0.60;0.60;;;;;;;8.73;58.09;100979.59;104073;1281;109532;-74
2022/05/01 03:41:46;;;;;;;0.60;0.60;;;;;;;8.72;58.19;100981.54;104033;1279;95714;-73
2022/05/01 03:44:14;;;;;;;0.60;0.60;;;;;;;8.70;58.10;100976.61;103984;1279;140051;-74
2022/05/01 03:46:42;;;;;;;0.60;0.60;;;;;;;8.77;57.86;100974.94;104078;1279;110224;-75
2022/05/01 03:49:10;;;;;;;0.60;0.60;;;;;;;8.78;57.83;100975.46;103984;1279;140059;-74
2022/05/01 03:51:37;;;;;;;0.60;0.60;;;;;;;8.76;58.22;100974.61;104110;1279;110042;-75
2022/05/01 03:54:05;;;;;;;0.60;0.60;;;;;;;8.70;58.71;100978.21;104101;1279;95570;-74
2022/05/01 03:56:33;;;;;;;0.60;0.60;;;;;;;8.65;58.77;100975.77;103990;1279;140170;-74
2022/05/01 03:59:04;;;;;;;0.50;0.50;;;;;;;8.77;58.47;100972.83;104107;1279;110364;-76
2022/05/01 04:01:33;;;;;;;0.60;0.60;;;;;;;8.85;58.33;100972.39;103968;1279;139515;-74
2022/05/01 04:04:01;;;;;;;0.50;0.50;;;;;;;8.85;58.47;100974.34;104095;1279;109411;-74
2022/05/01 04:06:29;;;;;;;0.60;0.60;;;;;;;8.84;58.54;100975.23;103968;1279;139492;-75
2022/05/01 04:08:57;;;;;;;0.70;0.70;;;;;;;8.93;58.29;100975.85;104055;1279;96933;-73
2022/05/01 04:11:25;;;;;;;0.50;0.50;;;;;;;8.98;58.61;100974.74;104051;1279;110163;-79
2022/05/01 04:13:53;;;;;;;0.50;0.50;;;;;;;8.94;58.83;100980.45;103788;1279;315174;-77
2022/05/01 04:16:21;;;;;;;0.50;0.50;;;;;;;8.92;58.91;100982.95;104081;1279;109335;-76
2022/05/01 04:18:48;;;;;;;0.60;0.60;;;;;;;9.02;59.00;100983.03;103956;1279;139274;-72
2022/05/01 04:21:16;;;;;;;0.50;0.50;;;;;;;9.17;58.42;100978.97;104126;1279;96047;-78
2022/05/01 04:23:44;;;;;;;0.60;0.60;;;;;;;9.29;58.29;100979.55;104093;1279;110168;-74
2022/05/01 04:26:12;;;;;;;0.60;0.60;;;;;;;9.41;57.71;100981.16;103983;1279;140301;-74
2022/05/01 04:29:36;;;;;;;0.50;0.50;;;;;;;9.50;57.56;100980.88;104069;1279;108249;-76
2022/05/01 04:31:27;;;;;;;0.60;0.60;;;;;;;9.59;57.42;100982.71;103955;1279;140485;-75
2022/05/01 04:33:55;;;;;;;0.50;0.50;;;;;;;9.71;57.11;100979.19;104099;1279;95208;-73
2022/05/01 04:36:23;;;;;;;0.50;0.50;;;;;;;9.82;56.94;100976.56;103938;1279;140715;-76
2022/05/01 04:38:51;;;;;;;0.50;0.50;;;;;;;9.89;56.52;100979.30;104066;1279;100213;-76
2022/05/01 04:41:21;;;;;;;0.50;0.50;;;;;;;9.96;56.52;100981.52;104052;1279;110062;-75
2022/05/01 04:43:48;;;;;;;0.50;0.50;;;;;;;10.01;56.91;100980.20;103973;1279;140089;-74
2022/05/01 04:46:16;;;;;;;0.50;0.50;;;;;;;10.11;57.11;100981.29;104077;1279;95672;-76
2022/05/01 04:48:44;;;;;;;0.50;0.50;;;;;;;10.23;56.63;100984.48;103960;1279;140306;-73
2022/05/01 04:51:12;;;;;;;0.50;0.40;;;;;;;10.34;56.60;100985.73;104059;1279;99460;-75
2022/05/01 04:53:40;;;;;;;0.50;0.50;;;;;;;10.45;56.34;100985.23;104093;1279;109334;-77
2022/05/01 04:58:54;;;;;;;0.50;0.40;;;;;;;10.58;56.22;100984.67;104106;1279;95215;-77
2022/05/01 05:01:22;;;;;;;0.40;0.40;;;;;;;10.66;55.88;100985.25;103932;1279;141957;-73
2022/05/01 05:03:50;;;;;;;0.50;0.40;;;;;;;10.66;55.94;100986.64;104074;1279;100035;-75
2022/05/01 05:06:18;;;;;;;0.40;0.40;;;;;;;10.75;55.92;100989.89;103994;1279;141309;-78
2022/05/01 05:11:31;;;;;;;0.50;0.40;;;;;;;10.90;55.78;100985.52;104118;1279;95383;-73
2022/05/01 05:13:59;;;;;;;0.50;0.40;;;;;;;11.00;55.60;100986.77;104008;1279;140157;-73
2022/05/01 05:16:29;;;;;;;0.40;0.40;;;;;;;11.03;55.57;100990.79;104118;1279;99986;-75
2022/05/01 05:18:57;;;;;;;0.40;0.40;;;;;;;11.06;55.66;100985.77;104037;1279;141382;-76
2022/05/01 05:21:24;;;;;;;0.40;0.40;;;;;;;11.13;55.56;100985.45;104072;1279;95230;-73
2022/05/01 05:23:54;;;;;;;0.50;0.40;;;;;;;11.29;55.42;100981.05;104097;1279;95846;-74
2022/05/01 05:26:22;;;;;;;0.50;0.40;;;;;;;11.44;55.18;100984.13;104072;1279;139862;-79
2022/05/01 05:28:50;;;;;;;0.40;0.40;;;;;;;11.50;54.91;100988.46;104155;1279;99941;-74
2022/05/01 05:31:18;;;;;;;0.40;0.40;;;;;;;11.45;55.12;100987.31;104012;1279;140075;-74
2022/05/01 05:33:45;;;;;;;0.50;0.40;;;;;;;11.42;55.44;100986.13;104151;1279;95343;-74
2022/05/01 05:36:13;;;;;;;0.50;0.40;;;;;;;11.51;55.34;100989.14;104124;1279;95627;-77
2022/05/01 05:38:41;;;;;;;0.40;0.40;;;;;;;11.63;54.91;100989.41;104002;1279;140207;-78
2022/05/01 05:41:09;;;;;;;0.40;0.30;;;;;;;11.65;55.00;100990.46;104171;1277;100223;-73
2022/05/01 05:43:36;;;;;;;0.40;0.30;;;;;;;11.61;54.83;100994.80;103978;1279;140756;-73
2022/05/01 05:46:04;;;;;;;0.40;0.30;;;;;;;11.64;54.65;100997.05;104132;1279;95272;-74
2022/05/01 05:48:32;;;;;;;0.40;0.30;;;;;;;11.75;54.78;100995.05;104083;1279;139963;-76
2022/05/01 05:51:00;;;;;;;0.40;0.40;;;;;;;11.82;54.29;100990.27;104107;1279;110114;-74
2022/05/01 05:53:28;;;;;;;0.40;0.30;;;;;;;11.83;54.60;100990.59;104138;1279;99884;-75
2022/05/01 05:55:57;;;;;;;0.40;0.40;;;;;;;11.90;54.41;100991.34;104106;1279;140105;-73
2022/05/01 05:58:24;;;;;;;0.40;0.30;;;;;;;12.07;54.41;100991.33;104339;1279;95231;-73
2022/05/01 06:00:52;;;;;;;0.40;0.30;;;;;;;12.18;53.87;100993.73;104110;1279;140015;-77
2022/05/01 06:03:20;;;;;;;0.40;0.30;;;;;;;12.29;53.80;100992.60;104214;1279;110265;-73
2022/05/01 06:05:48;;;;;;;0.40;0.30;;;;;;;12.38;53.23;100996.13;104128;1279;100233;-76
2022/05/01 06:08:16;;;;;;;0.40;0.30;;;;;;;12.43;53.04;101003.30;104014;1281;139187;-79
2022/05/01 06:10:44;;;;;;;0.40;0.30;;;;;;;12.59;53.04;100999.73;104135;1279;96059;-73
2022/05/01 06:13:11;;;;;;;0.40;0.30;;;;;;;12.81;52.94;100997.40;104034;1278;139786;-73
2022/05/01 06:15:39;;;;;;;0.40;0.30;;;;;;;13.04;52.12;100999.10;104110;1281;110251;-78
2022/05/01 06:18:07;;;;;;;0.40;0.30;;;;;;;13.19;51.42;100999.04;104155;1279;98313;-73
2022/05/01 06:20:35;;;;;;;0.40;0.30;;;;;;;13.34;51.18;101001.50;104059;1279;140263;-74
2022/05/01 06:23:03;;;;;;;0.40;0.30;;;;;;;13.45;51.02;100999.59;104128;1279;95220;-74
2022/05/01 06:25:31;;;;;;;0.40;0.30;;;;;;;13.47;51.24;101000.98;103984;1279;139703;-74
2022/05/01 06:27:59;;;;;;;0.40;0.30;;;;;;;13.59;50.71;101000.83;104133;1279;110172;-77
2022/05/01 06:30:27;;;;;;;0.40;0.30;;;;;;;13.68;50.32;101001.77;104036;1279;140497;-74
2022/05/01 06:32:54;;;;;;;0.40;0.30;;;;;;;13.87;49.96;100996.06;104138;1279;109252;-75
2022/05/01 06:35:24;;;;;;;0.40;0.20;;;;;;;14.35;49.57;100996.70;104094;1279;95651;-74
2022/05/01 06:37:52;;;;;;;0.40;0.20;;;;;;;14.71;48.26;100999.83;104029;1279;140284;-73
2022/05/01 06:40:20;;;;;;;0.40;0.20;;;;;;;14.82;47.49;101002.15;104059;1280;109815;-74
2022/05/01 06:42:49;;;;;;;0.40;0.20;;;;;;;15.02;47.41;101002.34;103985;1279;139989;-73
2022/05/01 06:45:16;;;;;;;0.40;0.20;;;;;;;15.17;46.29;101005.02;104109;1279;109470;-73
2022/05/01 06:47:44;;;;;;;0.40;0.20;;;;;;;15.25;45.56;101001.70;104176;1279;95244;-76
2022/05/01 06:50:12;;;;;;;0.40;0.20;;;;;;;15.31;45.41;101002.39;104041;1281;139720;-73
2022/05/01 06:52:41;;;;;;;0.40;0.20;;;;;;;15.36;45.15;101003.45;104165;1279;110076;-73
2022/05/01 06:55:09;;;;;;;0.40;0.20;;;;;;;15.38;45.09;101003.73;104066;1279;141271;-73
2022/05/01 06:57:37;;;;;;;0.40;0.20;;;;;;;15.42;45.21;101003.80;104140;1279;109258;-73
2022/05/01 07:00:07;;;;;;;0.40;0.20;;;;;;;15.43;44.49;101003.93;104162;1279;95263;-77
2022/05/01 07:02:35;;;;;;;0.40;0.20;;;;;;;15.43;44.93;101003.02;104211;1278;139862;-73
2022/05/01 07:05:03;;;;;;;0.40;0.20;;;;;;;15.53;44.49;101000.86;104157;1279;111706;-77
2022/05/01 07:07:31;;;;;;;0.40;0.20;;;;;;;15.67;44.88;101001.45;104051;1279;139753;-74
2022/05/01 07:09:59;;;;;;;0.40;0.20;;;;;;;15.80;44.46;101004.00;104181;1279;109238;-72
2022/05/01 07:12:26;;;;;;;0.40;0.20;;;;;;;15.84;43.78;101000.08;104046;1279;140190;-78
2022/05/01 07:14:54;;;;;;;0.40;0.20;;;;;;;15.97;43.62;100997.28;104198;1279;95176;-73
2022/05/01 07:17:22;;;;;;;0.40;0.20;;;;;;;16.12;42.88;100995.98;104154;1279;110198;-75
2022/05/01 07:19:49;;;;;;;0.40;0.20;;;;;;;16.28;42.49;100996.92;104063;1279;140221;-75
2022/05/01 07:22:17;;;;;;;0.40;0.20;;;;;;;16.39;40.89;100997.02;104160;1279;107929;-75
2022/05/01 07:24:45;;;;;;;0.40;0.20;;;;;;;16.47;41.50;100993.65;104077;1279;140253;-73
2022/05/01 07:27:13;;;;;;;0.40;0.20;;;;;;;16.62;40.46;100995.02;104200;1279;95549;-76
2022/05/01 07:29:41;;;;;;;0.40;0.20;;;;;;;16.74;38.60;100995.02;104173;1279;110617;-75
2022/05/01 07:32:09;;;;;;;0.40;0.20;;;;;;;16.80;38.61;100992.80;104101;1279;140062;-73
2022/05/01 07:34:37;;;;;;;0.40;0.20;;;;;;;16.92;38.19;100991.59;104151;1281;108298;-75
2022/05/01 07:37:05;;;;;;;0.40;0.20;;;;;;;17.06;38.32;100991.89;104119;1279;139782;-76
2022/05/01 07:39:33;;;;;;;0.40;0.10;;;;;;;17.16;38.18;100994.86;104106;1279;95221;-75
2022/05/01 07:42:01;;;;;;;0.40;0.20;;;;;;;17.25;37.23;100988.92;104241;1279;108792;-76
2022/05/01 07:44:29;;;;;;;0.40;0.20;;;;;;;17.28;36.38;100990.04;104079;1279;139680;-72
2022/05/01 07:46:57;;;;;;;0.40;0.20;;;;;;;17.33;35.91;100994.29;104123;1279;109299;-73
2022/05/01 07:49:25;;;;;;;0.40;0.10;;;;;;;17.36;34.93;100994.52;104079;1279;141098;-79
2022/05/01 07:51:53;;;;;;;0.40;0.20;;;;;;;17.44;35.40;100993.08;104181;1279;95319;-79
2022/05/01 07:54:21;;;;;;;0.40;0.10;;;;;;;17.58;35.73;100989.91;103970;1279;140215;-75
2022/05/01 07:56:49;;;;;;;0.40;0.10;;;;;;;17.70;35.44;100986.88;104119;1279;98506;-73
2022/05/01 07:59:16;;;;;;;0.40;0.10;;;;;;;17.76;34.76;100986.96;104078;1279;109285;-74
2022/05/01 08:01:44;;;;;;;0.40;0.20;;;;;;;17.84;34.30;100979.36;103999;1279;140537;-75
2022/05/01 08:04:28;;;;;;;0.40;0.10;;;;;;;17.93;33.92;100980.43;104254;1281;95147;-75
2022/05/01 08:06:58;;;;;;;0.40;0.10;;;;;;;18.00;33.32;100975.95;103955;1279;138708;-74
2022/05/01 08:09:27;;;;;;;0.40;0.10;;;;;;;18.09;33.85;100978.39;104038;1279;99837;-73
2022/05/01 08:11:55;;;;;;;0.40;0.10;;;;;;;18.25;33.66;100977.11;104092;1279;109781;-75
2022/05/01 08:14:23;;;;;;;0.40;0.10;;;;;;;18.32;33.54;100970.98;103974;1279;139902;-78
2022/05/01 08:16:51;;;;;;;0.40;0.10;;;;;;;18.46;33.28;100975.16;104082;1279;95212;-75
2022/05/01 08:22:06;;;;;;;0.40;0.10;;;;;;;18.72;32.00;100976.39;104131;1279;99159;-75
2022/05/01 08:24:36;;;;;;;0.40;0.10;;;;;;;18.77;32.15;100976.11;103987;1279;139966;-75
2022/05/01 08:27:07;;;;;;;0.40;0.10;;;;;;;18.83;31.26;100971.13;104139;1279;95538;-76
2022/05/01 08:29:39;;;;;;;0.40;0.10;;;;;;;18.95;30.72;100970.56;104134;1279;95149;-73
2022/05/01 08:32:07;;;;;;;0.40;0.10;;;;;;;18.97;30.64;100966.65;104057;1279;139594;-73
2022/05/01 08:34:35;;;;;;;0.40;0.10;;;;;;;19.08;30.50;100964.10;104135;1279;99897;-73
2022/05/01 08:37:03;;;;;;;0.40;0.10;;;;;;;19.12;30.81;100964.80;104023;1279;138717;-79
2022/05/01 08:39:30;;;;;;;0.40;0.10;;;;;;;19.25;30.32;100963.03;104158;1279;95626;-78
2022/05/01 08:42:00;;;;;;;0.40;0.10;;;;;;;19.37;30.42;100960.77;104371;1278;95596;-74
2022/05/01 08:44:32;;;;;;;0.40;0.10;;;;;;;19.47;29.44;100959.88;104319;1277;141508;-75
2022/05/01 08:47:32;;;;;;;0.40;0.10;;;;;;;19.47;30.04;100958.77;104213;1277;98862;-73
2022/05/01 08:50:00;;;;;;;0.40;0.10;;;;;;;19.66;30.00;100951.24;103892;1278;138922;-74
2022/05/01 08:52:29;;;;;;;0.40;0.10;;;;;;;19.88;29.77;100945.91;104091;1279;95195;-74
2022/05/01 08:54:58;;;;;;;0.40;0.10;;;;;;;19.98;29.12;100947.15;104198;1278;140192;-75
2022/05/01 08:57:27;;;;;;;0.40;0.10;;;;;;;19.97;28.79;100947.04;105215;1278;110272;-80
2022/05/01 08:59:55;;;;;;;0.40;0.10;;;;;;;20.03;28.71;100946.86;104237;1278;100137;-74
2022/05/01 09:02:23;;;;;;;0.40;0.10;;;;;;;20.02;28.22;100945.64;103976;1279;140142;-74
2022/05/01 09:04:51;;;;;;;0.40;0.10;;;;;;;20.06;28.27;100946.31;103965;1278;96495;-74
2022/05/01 09:07:19;;;;;;;0.40;0.10;;;;;;;20.19;27.99;100946.86;104061;1277;139701;-75
2022/05/01 09:09:47;;;;;;;0.40;0.10;;;;;;;20.37;27.21;100947.45;104049;1279;108525;-73
2022/05/01 09:15:02;;;;;;;0.40;0.10;;;;;;;20.86;27.00;100945.09;104031;1278;139925;-79
2022/05/01 09:17:30;;;;;;;0.40;0.10;;;;;;;21.06;27.49;100941.52;104141;1277;95262;-81
2022/05/01 09:20:09;;;;;;;0.40;0.10;;;;;;;21.30;26.31;100942.05;103995;1277;138091;-76
2022/05/01 09:22:51;;;;;;;0.40;0.10;;;;;;;22.15;25.56;100936.25;104137;1277;110170;-77
2022/05/01 09:25:24;;;;;;;0.40;0.10;;;;;;;23.53;24.06;100931.33;104002;1278;140395;-76
2022/05/01 09:28:01;;;;;;;0.40;0.10;;;;;;;24.72;22.14;100930.16;104092;1278;109328;-73
2022/05/01 09:30:35;;;;;;;0.40;0.10;;;;;;;25.59;21.38;100926.40;104114;1278;95331;-73
2022/05/01 09:33:03;;;;;;;0.40;0.00;;;;;;;26.04;20.17;100923.45;104005;1278;140267;-77
2022/05/01 09:35:33;;;;;;;0.40;0.00;;;;;;;26.24;19.45;100926.17;104182;1278;110121;-76
2022/05/01 09:38:15;;;;;;;0.40;0.00;;;;;;;26.43;20.36;100924.19;104190;1277;139949;-74
2022/05/01 09:40:48;;;;;;;0.40;0.00;;;;;;;26.63;19.38;100927.58;104201;1278;108003;-77
2022/05/01 09:43:38;;;;;;;0.40;0.00;;;;;;;26.43;19.71;100918.39;103990;1279;138837;-73
2022/05/01 09:46:09;;;;;;;0.40;0.00;;;;;;;26.48;20.61;100917.74;104289;1278;95227;-74
2022/05/01 09:48:38;;;;;;;0.40;0.00;;;;;;;26.84;20.76;100922.95;104199;1278;108668;-74
2022/05/01 09:51:17;;;;;;;0.40;0.00;;;;;;;27.02;19.61;100915.16;104072;1278;139856;-75
2022/05/01 09:53:45;;;;;;;0.40;0.00;;;;;;;27.13;19.82;100912.05;104131;1278;108219;-75
2022/05/01 09:56:13;;;;;;;0.40;0.00;;;;;;;26.90;19.89;100910.91;104081;1278;140022;-76
2022/05/01 09:58:43;;;;;;;0.40;0.00;;;;;;;26.53;20.04;100912.27;104206;1277;95749;-76
2022/05/01 10:01:15;;;;;;;0.40;0.00;;;;;;;26.36;19.82;100911.29;104073;1278;140566;-76
2022/05/01 10:03:46;;;;;;;0.40;0.00;;;;;;;26.65;19.49;100914.29;104148;1278;98134;-77
2022/05/01 10:06:15;;;;;;;0.40;0.00;;;;;;;27.00;19.44;100911.14;104181;1278;109588;-76
2022/05/01 10:08:44;;;;;;;0.40;0.00;;;;;;;27.40;18.54;100904.39;103998;1278;140028;-74
2022/05/01 10:11:16;;;;;;;0.40;0.00;;;;;;;28.10;18.78;100901.91;104269;1278;95837;-77
2022/05/01 10:13:45;;;;;;;0.40;0.00;;;;;;;28.64;17.46;100896.52;104115;1277;140902;-76
2022/05/01 10:16:15;;;;;;;0.40;0.00;;;;;;;28.85;16.41;100896.71;106709;1278;99936;-77
2022/05/01 10:18:50;;;;;;;0.40;0.00;;;;;;;29.13;17.02;100898.39;104064;1277;139953;-76
2022/05/01 10:21:38;;;;;;;0.40;0.00;;;;;;;29.46;16.77;100897.27;104239;1277;95718;-79
2022/05/01 10:24:06;;;;;;;0.40;0.00;;;;;;;29.47;16.48;100894.02;104340;1279;95257;-73
2022/05/01 10:26:37;;;;;;;0.40;0.00;;;;;;;29.38;16.37;100892.15;104392;1279;140034;-74
2022/05/01 10:29:11;;;;;;;0.40;0.00;;;;;;;29.77;15.96;100885.00;104486;1279;99726;-75
2022/05/01 10:35:07;;;;;;;0.40;0.00;;;;;;;30.98;15.21;100884.41;104335;1279;95636;-73
2022/05/01 10:38:00;;;;;;;0.40;0.00;;;;;;;31.34;14.56;100882.27;104230;1278;140060;-80
2022/05/01 10:40:42;;;;;;;0.40;0.00;;;;;;;31.10;15.21;100881.21;104209;1277;109633;-78
2022/05/01 10:43:29;;;;;;;0.40;0.00;;;;;;;31.73;15.33;100875.93;104098;1278;140313;-75
2022/05/01 10:46:01;;;;;;;0.40;0.00;;;;;;;32.62;15.27;100870.27;104385;1278;109693;-75
2022/05/01 10:48:34;;;;;;;0.40;0.00;;;;;;;33.02;14.18;100873.77;104545;1278;95205;-77
2022/05/01 10:51:27;;;;;;;0.40;0.00;;;;;;;32.88;14.38;100868.73;104081;1279;139451;-76
2022/05/01 10:54:10;;;;;;;0.40;0.00;;;;;;;31.58;14.47;100862.60;104207;1279;110072;-76
2022/05/01 10:56:50;;;;;;;0.40;0.00;;;;;;;29.75;15.91;100866.99;104133;1277;141008;-75
2022/05/01 10:59:39;;;;;;;0.40;0.00;;;;;;;28.72;16.80;100867.23;104176;1277;109565;-75
2022/05/01 11:02:31;;;;;;;0.40;0.00;;;;;;;27.90;17.72;100863.02;104546;1279;140841;-74
2022/05/01 11:04:59;;;;;;;0.40;0.00;;;;;;;26.83;19.19;100867.81;104205;1279;95224;-75
2022/05/01 11:07:28;;;;;;;0.40;0.00;;;;;;;26.53;19.66;100870.53;104077;1278;140379;-74
2022/05/01 11:09:59;;;;;;;0.40;0.00;;;;;;;26.33;20.15;100864.59;104141;1279;100155;-77
2022/05/01 11:12:28;;;;;;;0.40;0.00;;;;;;;26.08;19.57;100852.92;104148;1279;109331;-74
2022/05/01 11:15:04;;;;;;;0.40;0.00;;;;;;;25.73;19.87;100859.77;103960;1278;139465;-75
2022/05/01 11:17:36;;;;;;;0.40;0.00;;;;;;;24.95;20.25;100864.81;104122;1279;95160;-75
2022/05/01 11:20:21;;;;;;;0.40;0.00;;;;;;;24.69;21.39;100861.90;104004;1279;139590;-76
2022/05/01 11:22:49;;;;;;;0.40;0.00;;;;;;;24.35;20.81;100863.09;104090;1278;99881;-76
2022/05/01 11:25:33;;;;;;;0.40;0.00;;;;;;;24.11;21.30;100864.33;103899;1279;139237;-76
2022/05/01 11:28:01;;;;;;;0.40;0.00;;;;;;;23.96;22.14;100862.20;104132;1278;95844;-75
2022/05/01 11:30:30;;;;;;;0.40;0.00;;;;;;;23.69;21.68;100857.45;104141;1279;95131;-74
2022/05/01 11:33:11;;;;;;;0.40;0.10;;;;;;;23.26;21.89;100858.64;103997;1279;138653;-74
2022/05/01 11:35:58;;;;;;;0.40;0.10;;;;;;;22.97;22.23;100856.33;104183;1279;99551;-74
2022/05/01 11:38:39;;;;;;;0.40;0.10;;;;;;;22.90;22.57;100853.02;104096;1279;138994;-78
2022/05/01 11:41:07;;;;;;;0.40;0.10;;;;;;;22.75;22.25;100849.91;104113;1279;95805;-75
2022/05/01 11:43:35;;;;;;;0.40;0.10;;;;;;;22.52;23.17;100849.84;103981;1281;140287;-76
2022/05/01 11:46:04;;;;;;;0.40;0.00;;;;;;;22.33;23.06;100842.83;104143;1277;110066;-78
2022/05/01 11:48:32;;;;;;;0.40;0.10;;;;;;;22.18;23.81;100842.35;104189;1278;100232;-76
2022/05/01 11:51:00;;;;;;;0.40;0.10;;;;;;;22.13;23.55;100841.25;104104;1279;139982;-77
2022/05/01 11:53:29;;;;;;;0.40;0.10;;;;;;;22.12;23.66;100840.99;104120;1279;95244;-76
2022/05/01 12:04:35;;;;;;;0.40;0.10;;;;;;;21.19;24.13;100828.42;104180;1279;109295;-75